Boca Raton, FL (33428)

3:43 PM EDT on August 27, 2015 (GMT -0400)
Boca (C6162) | | Change Station
CLOSE
Current Station
Personal Weather Station
Location: Boca Raton, FL
Elevation: 12 ft
Nearby Weather Stations

Elev 12 ft 26.34 °N, 80.21 °W | Updated 7 seconds ago

Mostly Cloudy
Mostly Cloudy
86.0 °F
Feels Like 95 °F
N
3.0
Wind Variable Wind from SE
Gusts 6.0 mph

Today
High -- | Low -- °F
--% Chance of Precip.
Yesterday
High -- | Low -- °F
Precip. -- in
6:58 AM 7:45 PM
Waxing Gibbous, 94% visible
Pressure 29.97 in
Visibility 10.0 miles
Clouds Few 5000 ft
Scattered Clouds 6000 ft
Heat Index 95 °F
Dew Point 75 °F
Humidity 70%
Rainfall 0.00 in
Snow Depth Not available.
UV 3.5 out of 12
Pollen .60 out of 12
Air Quality Not available.
Flu Activity Not available.
METAR KPMP 271853Z 17003KT 10SM FEW050 SCT060 28/21 A2997 RMK AO2 SLP148 T02830211
Pressure 29.97 in
Visibility 10.0 miles
Clouds Few 5000 ft
Scattered Clouds 6000 ft
Heat Index 95 °F
Dew Point 75 °F
Humidity 70%
Rainfall 0.00 in
Snow Depth Not available.
UV 3.5 out of 12
Pollen .60 out of 12
Air Quality Not available.
Flu Activity Not available.
METAR KPMP 271853Z 17003KT 10SM FEW050 SCT060 28/21 A2997 RMK AO2 SLP148 T02830211
Nowcast | as of 2:31 PM EDT on August 27, 2015

Gusty showers and lightning storms will move across Lake Okeechobee and far northeastern Hendry County into Palm Beach County through the mid afternoon hours. Gusty winds up to 40 mph...frequent lightning and heavy rainfall will be possible with this activity as it moves to the east-northeast at 10 to 15 mph. Elsewhere...a line of showers and storms moving across the eastern Gulf of Mexico will push into Collier County through the late afternoon hours. Additional isolated shower and storms development may be possible through the remainder of the region.

×

10-Day Weather Forecast

×

Almanac

Astronomy

Aug. 27, 2015 Rise Set
Actual Time
Civil Twilight
Nautical Twilight
Astronomical Twilight
Moon
Length of Visible Light
Length of Day
Tomorrow will be .
, % of the Moon is Illuminated

Today's Extremes

State Highs State Lows

Community

WunderPhotos

Upload Photos

1,850,200 photos uploaded!

WunderBlogs® & News

Nearby

Air Quality

  Air Quality AQ Index Pollutant
Not available.

Snow Depth

Station Depth Elevation

Earthquake Activity

City Distance Mag. Time & Date
Minimum magnitude displayed is 2.5.

Coastal Water Temperatures

Place Temperature

Stations

Nearby Weather Stations

Station Location Temp. Windchill Dew Point Humidity Wind Precip. Elev Updated Type